CheckWX is a tool to help pilots better visualize weather data.  It is not intended as a substitute for an official pre-flight weather briefing.

14:44:31 UTC

KSEG METAR
Penn Valley Airport
Selinsgrove, Pennsylvania, USA
Current

24 mins ago

KSEG 261421Z AUTO 12005KT 1 3/4SM VCTS RA BR FEW023 BKN046 OVC070 13/12 A2954 RMK AO2 LTG DSNT E AND S P0010 T01280117
Observed
Apr-26 @ 14:21 UTC
Wind
  • 120° at 5 KTS
Visibility
1 3/4 SM
Flight Rules
IFR
Conditions
Area Thunderstorm, Rain, Mist
Cloud Levels
  • Few at 2,300' AGL
  • Broken at 4,600' AGL
  • Overcast at 7,000' AGL
Temperature
13°C / 55°F
Dewpoint
12°C / 54°F
Humidity
94%
Altimeter
29.54" Hg
Pressure
1000.32 hPa
Current Rain
0.1"
Previous

45 mins ago

KSEG 261400Z AUTO 17003KT 3SM -RA BR SCT016 BKN049 OVC090 12/12 A2956 RMK AO2 LTG DSNT E-S P0001 T01220117
Observed
Apr-26 @ 14:00 UTC
Wind
  • 170° at 3 KTS
Visibility
3 SM
Flight Rules
MVFR
Conditions
Light Rain, Mist
Cloud Levels
  • Scattered at 1,600' AGL
  • Broken at 4,900' AGL
  • Overcast at 9,000' AGL
Temperature
12°C / 54°F
Dewpoint
12°C / 54°F
Humidity
100%
Altimeter
29.56" Hg
Pressure
1001.02 hPa
Current Rain
0.01"
Previous

52 mins ago

KSEG 261353Z AUTO 22003KT 2SM RA BR FEW006 BKN016 OVC050 12/12 A2956 RMK AO2 LTG DSNT E AND SE SLP008 P0025 T01220117
Observed
Apr-26 @ 13:53 UTC
Wind
  • 220° at 3 KTS
Visibility
2 SM
Flight Rules
IFR
Conditions
Rain, Mist
Cloud Levels
  • Few at 600' AGL
  • Broken at 1,600' AGL
  • Overcast at 5,000' AGL
Temperature
12°C / 54°F
Dewpoint
12°C / 54°F
Humidity
100%
Altimeter
29.56" Hg
Pressure
1001.02 hPa
Current Rain
0.25"